sensor_id;sensor_type;location;lat;lon;timestamp;P1;durP1;ratioP1;P2;durP2;ratioP2
12597;SDS011;6364;53.590;9.956;2023-12-14T00:00:30;9.65;;;3.28;;
12597;SDS011;6364;53.590;9.956;2023-12-14T00:02:56;6.18;;;3.03;;
12597;SDS011;6364;53.590;9.956;2023-12-14T00:05:21;8.18;;;2.97;;
12597;SDS011;6364;53.590;9.956;2023-12-14T00:07:46;5.28;;;2.85;;
12597;SDS011;6364;53.590;9.956;2023-12-14T00:10:12;5.43;;;3.35;;
12597;SDS011;6364;53.590;9.956;2023-12-14T00:12:37;8.38;;;3.17;;
12597;SDS011;6364;53.590;9.956;2023-12-14T00:15:03;7.47;;;2.72;;
12597;SDS011;6364;53.590;9.956;2023-12-14T00:17:28;7.32;;;3.10;;
12597;SDS011;6364;53.590;9.956;2023-12-14T00:19:54;6.10;;;3.10;;
12597;SDS011;6364;53.590;9.956;2023-12-14T00:22:19;6.25;;;2.72;;
12597;SDS011;6364;53.590;9.956;2023-12-14T00:24:45;6.07;;;2.90;;
12597;SDS011;6364;53.590;9.956;2023-12-14T00:27:10;10.27;;;3.25;;
12597;SDS011;6364;53.590;9.956;2023-12-14T00:29:36;9.13;;;3.10;;
12597;SDS011;6364;53.590;9.956;2023-12-14T00:32:01;5.28;;;2.78;;
12597;SDS011;6364;53.590;9.956;2023-12-14T00:34:26;5.25;;;2.65;;
12597;SDS011;6364;53.590;9.956;2023-12-14T00:36:51;8.13;;;2.92;;
12597;SDS011;6364;53.590;9.956;2023-12-14T00:39:17;6.63;;;2.92;;
12597;SDS011;6364;53.590;9.956;2023-12-14T00:41:42;4.45;;;2.33;;
12597;SDS011;6364;53.590;9.956;2023-12-14T00:44:08;8.27;;;3.33;;
12597;SDS011;6364;53.590;9.956;2023-12-14T00:46:33;6.30;;;2.92;;
12597;SDS011;6364;53.590;9.956;2023-12-14T00:48:58;6.55;;;3.10;;
12597;SDS011;6364;53.590;9.956;2023-12-14T00:51:23;11.18;;;2.50;;
12597;SDS011;6364;53.590;9.956;2023-12-14T00:53:49;5.55;;;2.30;;
12597;SDS011;6364;53.590;9.956;2023-12-14T00:56:14;6.78;;;2.33;;
12597;SDS011;6364;53.590;9.956;2023-12-14T00:58:39;7.53;;;2.40;;
12597;SDS011;6364;53.590;9.956;2023-12-14T01:01:05;6.20;;;2.15;;
12597;SDS011;6364;53.590;9.956;2023-12-14T01:03:30;4.30;;;2.10;;
12597;SDS011;6364;53.590;9.956;2023-12-14T01:05:55;4.45;;;2.60;;
12597;SDS011;6364;53.590;9.956;2023-12-14T01:08:21;8.50;;;2.45;;
12597;SDS011;6364;53.590;9.956;2023-12-14T01:10:46;4.20;;;1.90;;
12597;SDS011;6364;53.590;9.956;2023-12-14T01:13:11;7.28;;;2.35;;
12597;SDS011;6364;53.590;9.956;2023-12-14T01:15:37;6.70;;;2.00;;
12597;SDS011;6364;53.590;9.956;2023-12-14T01:18:02;5.32;;;2.42;;
12597;SDS011;6364;53.590;9.956;2023-12-14T01:20:27;8.95;;;2.20;;
12597;SDS011;6364;53.590;9.956;2023-12-14T01:22:53;4.80;;;2.40;;
12597;SDS011;6364;53.590;9.956;2023-12-14T01:25:18;4.63;;;2.08;;
12597;SDS011;6364;53.590;9.956;2023-12-14T01:27:43;5.15;;;2.15;;
12597;SDS011;6364;53.590;9.956;2023-12-14T01:30:09;10.02;;;2.35;;
12597;SDS011;6364;53.590;9.956;2023-12-14T01:32:34;4.13;;;1.90;;
12597;SDS011;6364;53.590;9.956;2023-12-14T01:35:00;8.48;;;2.03;;
12597;SDS011;6364;53.590;9.956;2023-12-14T01:37:25;4.78;;;1.95;;
12597;SDS011;6364;53.590;9.956;2023-12-14T01:39:50;7.70;;;2.08;;
12597;SDS011;6364;53.590;9.956;2023-12-14T01:42:16;8.05;;;2.72;;
12597;SDS011;6364;53.590;9.956;2023-12-14T01:44:41;9.23;;;2.78;;
12597;SDS011;6364;53.590;9.956;2023-12-14T01:47:06;4.97;;;2.42;;
12597;SDS011;6364;53.590;9.956;2023-12-14T01:49:32;6.00;;;1.92;;
12597;SDS011;6364;53.590;9.956;2023-12-14T01:51:57;4.70;;;2.00;;
12597;SDS011;6364;53.590;9.956;2023-12-14T01:54:22;5.43;;;2.30;;
12597;SDS011;6364;53.590;9.956;2023-12-14T01:56:48;4.28;;;2.10;;
12597;SDS011;6364;53.590;9.956;2023-12-14T01:59:13;5.95;;;2.05;;
12597;SDS011;6364;53.590;9.956;2023-12-14T02:01:42;6.28;;;2.38;;
12597;SDS011;6364;53.590;9.956;2023-12-14T02:04:08;4.20;;;2.10;;
12597;SDS011;6364;53.590;9.956;2023-12-14T02:06:34;6.82;;;2.40;;
12597;SDS011;6364;53.590;9.956;2023-12-14T02:09:00;4.05;;;2.60;;
12597;SDS011;6364;53.590;9.956;2023-12-14T02:11:25;6.63;;;2.50;;
12597;SDS011;6364;53.590;9.956;2023-12-14T02:13:50;3.85;;;1.80;;
12597;SDS011;6364;53.590;9.956;2023-12-14T02:16:16;5.25;;;2.25;;
12597;SDS011;6364;53.590;9.956;2023-12-14T02:18:41;6.65;;;2.40;;
12597;SDS011;6364;53.590;9.956;2023-12-14T02:21:06;7.60;;;2.17;;
12597;SDS011;6364;53.590;9.956;2023-12-14T02:23:31;7.28;;;1.80;;
12597;SDS011;6364;53.590;9.956;2023-12-14T02:25:58;7.93;;;2.15;;
12597;SDS011;6364;53.590;9.956;2023-12-14T02:28:23;8.55;;;2.30;;
12597;SDS011;6364;53.590;9.956;2023-12-14T02:30:49;8.43;;;2.20;;
12597;SDS011;6364;53.590;9.956;2023-12-14T02:33:14;8.98;;;2.78;;
12597;SDS011;6364;53.590;9.956;2023-12-14T02:35:40;5.00;;;2.28;;
12597;SDS011;6364;53.590;9.956;2023-12-14T02:38:05;7.47;;;2.13;;
12597;SDS011;6364;53.590;9.956;2023-12-14T02:40:30;7.82;;;2.33;;
12597;SDS011;6364;53.590;9.956;2023-12-14T02:42:56;5.07;;;2.53;;
12597;SDS011;6364;53.590;9.956;2023-12-14T02:45:21;5.82;;;2.75;;
12597;SDS011;6364;53.590;9.956;2023-12-14T02:47:46;5.57;;;2.35;;
12597;SDS011;6364;53.590;9.956;2023-12-14T02:50:13;4.50;;;2.45;;
12597;SDS011;6364;53.590;9.956;2023-12-14T02:52:38;10.57;;;2.40;;
12597;SDS011;6364;53.590;9.956;2023-12-14T02:55:04;7.70;;;2.40;;
12597;SDS011;6364;53.590;9.956;2023-12-14T02:57:29;5.57;;;2.65;;
12597;SDS011;6364;53.590;9.956;2023-12-14T02:59:55;6.75;;;2.50;;
12597;SDS011;6364;53.590;9.956;2023-12-14T03:02:20;10.30;;;2.90;;
12597;SDS011;6364;53.590;9.956;2023-12-14T03:04:46;9.15;;;2.70;;
12597;SDS011;6364;53.590;9.956;2023-12-14T03:07:11;5.50;;;2.47;;
12597;SDS011;6364;53.590;9.956;2023-12-14T03:09:38;7.03;;;2.85;;
12597;SDS011;6364;53.590;9.956;2023-12-14T03:12:06;6.80;;;2.75;;
12597;SDS011;6364;53.590;9.956;2023-12-14T03:14:31;8.93;;;2.40;;
12597;SDS011;6364;53.590;9.956;2023-12-14T03:16:58;6.10;;;2.53;;
12597;SDS011;6364;53.590;9.956;2023-12-14T03:19:23;5.47;;;2.40;;
12597;SDS011;6364;53.590;9.956;2023-12-14T03:21:48;6.72;;;2.80;;
12597;SDS011;6364;53.590;9.956;2023-12-14T03:24:13;5.68;;;2.50;;
12597;SDS011;6364;53.590;9.956;2023-12-14T03:26:39;7.07;;;3.00;;
12597;SDS011;6364;53.590;9.956;2023-12-14T03:29:04;10.57;;;2.72;;
12597;SDS011;6364;53.590;9.956;2023-12-14T03:31:30;7.65;;;2.40;;
12597;SDS011;6364;53.590;9.956;2023-12-14T03:33:55;5.35;;;2.42;;
12597;SDS011;6364;53.590;9.956;2023-12-14T03:36:20;4.72;;;2.55;;
12597;SDS011;6364;53.590;9.956;2023-12-14T03:38:47;4.32;;;2.20;;
12597;SDS011;6364;53.590;9.956;2023-12-14T03:41:13;4.95;;;2.47;;
12597;SDS011;6364;53.590;9.956;2023-12-14T03:43:38;4.93;;;2.58;;
12597;SDS011;6364;53.590;9.956;2023-12-14T03:46:03;5.40;;;2.70;;
12597;SDS011;6364;53.590;9.956;2023-12-14T03:48:31;5.00;;;2.30;;
12597;SDS011;6364;53.590;9.956;2023-12-14T03:50:56;7.93;;;2.90;;
12597;SDS011;6364;53.590;9.956;2023-12-14T03:53:21;5.32;;;2.92;;
12597;SDS011;6364;53.590;9.956;2023-12-14T03:55:46;7.28;;;2.88;;
12597;SDS011;6364;53.590;9.956;2023-12-14T03:58:12;6.63;;;3.10;;
12597;SDS011;6364;53.590;9.956;2023-12-14T04:00:37;7.50;;;2.92;;
12597;SDS011;6364;53.590;9.956;2023-12-14T04:03:02;6.53;;;2.55;;
12597;SDS011;6364;53.590;9.956;2023-12-14T04:05:28;5.38;;;2.55;;
12597;SDS011;6364;53.590;9.956;2023-12-14T04:07:53;3.60;;;2.38;;
12597;SDS011;6364;53.590;9.956;2023-12-14T04:10:18;4.20;;;2.45;;
12597;SDS011;6364;53.590;9.956;2023-12-14T04:12:44;5.32;;;2.75;;
12597;SDS011;6364;53.590;9.956;2023-12-14T04:15:09;5.72;;;2.47;;
12597;SDS011;6364;53.590;9.956;2023-12-14T04:17:35;7.05;;;2.70;;
12597;SDS011;6364;53.590;9.956;2023-12-14T04:20:00;9.07;;;2.83;;
12597;SDS011;6364;53.590;9.956;2023-12-14T04:22:26;6.68;;;2.95;;
12597;SDS011;6364;53.590;9.956;2023-12-14T04:24:51;12.07;;;3.50;;
12597;SDS011;6364;53.590;9.956;2023-12-14T04:27:17;7.03;;;2.78;;
12597;SDS011;6364;53.590;9.956;2023-12-14T04:29:42;8.40;;;2.95;;
12597;SDS011;6364;53.590;9.956;2023-12-14T04:32:08;9.82;;;3.25;;
12597;SDS011;6364;53.590;9.956;2023-12-14T04:34:33;6.28;;;2.58;;
12597;SDS011;6364;53.590;9.956;2023-12-14T04:36:58;7.78;;;2.60;;
12597;SDS011;6364;53.590;9.956;2023-12-14T04:39:24;7.82;;;3.00;;
12597;SDS011;6364;53.590;9.956;2023-12-14T04:41:50;9.63;;;3.00;;
12597;SDS011;6364;53.590;9.956;2023-12-14T04:44:15;9.07;;;3.08;;
12597;SDS011;6364;53.590;9.956;2023-12-14T04:46:41;9.07;;;3.65;;
12597;SDS011;6364;53.590;9.956;2023-12-14T04:49:07;6.82;;;3.35;;
12597;SDS011;6364;53.590;9.956;2023-12-14T04:51:32;8.63;;;3.63;;
12597;SDS011;6364;53.590;9.956;2023-12-14T04:53:57;8.30;;;4.28;;
12597;SDS011;6364;53.590;9.956;2023-12-14T04:56:23;11.70;;;3.83;;
12597;SDS011;6364;53.590;9.956;2023-12-14T04:58:48;8.68;;;3.60;;
12597;SDS011;6364;53.590;9.956;2023-12-14T05:01:13;10.82;;;4.38;;
12597;SDS011;6364;53.590;9.956;2023-12-14T05:03:39;11.18;;;4.28;;
12597;SDS011;6364;53.590;9.956;2023-12-14T05:06:05;10.70;;;4.05;;
12597;SDS011;6364;53.590;9.956;2023-12-14T05:08:30;10.88;;;4.05;;
12597;SDS011;6364;53.590;9.956;2023-12-14T05:10:55;9.07;;;4.05;;
12597;SDS011;6364;53.590;9.956;2023-12-14T05:13:21;8.50;;;4.15;;
12597;SDS011;6364;53.590;9.956;2023-12-14T05:15:46;12.65;;;4.65;;
12597;SDS011;6364;53.590;9.956;2023-12-14T05:18:11;11.80;;;4.88;;
12597;SDS011;6364;53.590;9.956;2023-12-14T05:20:37;8.95;;;4.38;;
12597;SDS011;6364;53.590;9.956;2023-12-14T05:23:02;12.15;;;4.97;;
12597;SDS011;6364;53.590;9.956;2023-12-14T05:25:28;9.75;;;4.82;;
12597;SDS011;6364;53.590;9.956;2023-12-14T05:27:53;10.52;;;4.50;;
12597;SDS011;6364;53.590;9.956;2023-12-14T05:30:18;7.47;;;4.55;;
12597;SDS011;6364;53.590;9.956;2023-12-14T05:32:44;10.13;;;4.82;;
12597;SDS011;6364;53.590;9.956;2023-12-14T05:35:09;12.00;;;5.38;;
12597;SDS011;6364;53.590;9.956;2023-12-14T05:37:35;13.93;;;4.68;;
12597;SDS011;6364;53.590;9.956;2023-12-14T05:40:01;7.70;;;4.50;;
12597;SDS011;6364;53.590;9.956;2023-12-14T05:42:27;11.68;;;4.95;;
12597;SDS011;6364;53.590;9.956;2023-12-14T05:44:52;15.20;;;5.68;;
12597;SDS011;6364;53.590;9.956;2023-12-14T05:47:18;12.98;;;5.40;;
12597;SDS011;6364;53.590;9.956;2023-12-14T05:49:43;10.00;;;4.88;;
12597;SDS011;6364;53.590;9.956;2023-12-14T05:52:09;13.55;;;5.40;;
12597;SDS011;6364;53.590;9.956;2023-12-14T05:54:38;11.48;;;5.20;;
12597;SDS011;6364;53.590;9.956;2023-12-14T05:57:04;11.65;;;5.53;;
12597;SDS011;6364;53.590;9.956;2023-12-14T05:59:30;9.27;;;5.43;;
12597;SDS011;6364;53.590;9.956;2023-12-14T06:01:58;13.25;;;6.20;;
12597;SDS011;6364;53.590;9.956;2023-12-14T06:04:24;13.02;;;6.60;;
12597;SDS011;6364;53.590;9.956;2023-12-14T06:06:50;15.13;;;6.53;;
12597;SDS011;6364;53.590;9.956;2023-12-14T06:09:15;11.73;;;6.28;;
12597;SDS011;6364;53.590;9.956;2023-12-14T06:11:43;13.18;;;6.10;;
12597;SDS011;6364;53.590;9.956;2023-12-14T06:14:08;15.80;;;6.50;;
12597;SDS011;6364;53.590;9.956;2023-12-14T06:16:33;13.55;;;6.30;;
12597;SDS011;6364;53.590;9.956;2023-12-14T06:18:59;14.80;;;6.38;;
12597;SDS011;6364;53.590;9.956;2023-12-14T06:21:24;17.30;;;7.47;;
12597;SDS011;6364;53.590;9.956;2023-12-14T06:23:53;10.73;;;7.07;;
12597;SDS011;6364;53.590;9.956;2023-12-14T06:26:18;17.35;;;6.88;;
12597;SDS011;6364;53.590;9.956;2023-12-14T06:28:43;12.45;;;7.07;;
12597;SDS011;6364;53.590;9.956;2023-12-14T06:31:12;16.88;;;7.25;;
12597;SDS011;6364;53.590;9.956;2023-12-14T06:33:39;18.33;;;7.18;;
12597;SDS011;6364;53.590;9.956;2023-12-14T06:36:04;16.33;;;7.72;;
12597;SDS011;6364;53.590;9.956;2023-12-14T06:38:31;15.98;;;6.85;;
12597;SDS011;6364;53.590;9.956;2023-12-14T06:40:56;13.82;;;7.50;;
12597;SDS011;6364;53.590;9.956;2023-12-14T06:43:22;16.58;;;7.50;;
12597;SDS011;6364;53.590;9.956;2023-12-14T06:45:47;14.63;;;7.78;;
12597;SDS011;6364;53.590;9.956;2023-12-14T06:48:12;12.27;;;6.97;;
12597;SDS011;6364;53.590;9.956;2023-12-14T06:50:38;11.63;;;6.93;;
12597;SDS011;6364;53.590;9.956;2023-12-14T06:53:03;11.32;;;6.47;;
12597;SDS011;6364;53.590;9.956;2023-12-14T06:55:29;11.75;;;6.75;;
12597;SDS011;6364;53.590;9.956;2023-12-14T06:57:54;15.90;;;7.88;;
12597;SDS011;6364;53.590;9.956;2023-12-14T07:00:20;13.63;;;7.30;;
12597;SDS011;6364;53.590;9.956;2023-12-14T07:02:45;14.90;;;7.82;;
12597;SDS011;6364;53.590;9.956;2023-12-14T07:05:10;18.05;;;7.70;;
12597;SDS011;6364;53.590;9.956;2023-12-14T07:07:36;12.30;;;7.38;;
12597;SDS011;6364;53.590;9.956;2023-12-14T07:10:01;15.65;;;7.40;;
12597;SDS011;6364;53.590;9.956;2023-12-14T07:12:27;12.05;;;7.38;;
12597;SDS011;6364;53.590;9.956;2023-12-14T07:14:52;14.77;;;7.45;;
12597;SDS011;6364;53.590;9.956;2023-12-14T07:17:17;11.98;;;6.90;;
12597;SDS011;6364;53.590;9.956;2023-12-14T07:19:42;15.75;;;7.75;;
12597;SDS011;6364;53.590;9.956;2023-12-14T07:22:08;16.20;;;8.25;;
12597;SDS011;6364;53.590;9.956;2023-12-14T07:24:33;16.33;;;8.07;;
12597;SDS011;6364;53.590;9.956;2023-12-14T07:26:58;18.38;;;7.93;;
12597;SDS011;6364;53.590;9.956;2023-12-14T07:29:24;15.80;;;7.38;;
12597;SDS011;6364;53.590;9.956;2023-12-14T07:31:49;17.02;;;8.48;;
12597;SDS011;6364;53.590;9.956;2023-12-14T07:34:14;16.13;;;8.85;;
12597;SDS011;6364;53.590;9.956;2023-12-14T07:36:39;15.93;;;8.15;;
12597;SDS011;6364;53.590;9.956;2023-12-14T07:39:05;14.50;;;7.95;;
12597;SDS011;6364;53.590;9.956;2023-12-14T07:41:31;18.08;;;8.23;;
12597;SDS011;6364;53.590;9.956;2023-12-14T07:43:57;16.45;;;7.38;;
12597;SDS011;6364;53.590;9.956;2023-12-14T07:46:23;17.02;;;8.20;;
12597;SDS011;6364;53.590;9.956;2023-12-14T07:48:48;14.82;;;8.45;;
12597;SDS011;6364;53.590;9.956;2023-12-14T07:51:14;16.45;;;9.00;;
12597;SDS011;6364;53.590;9.956;2023-12-14T07:53:39;20.73;;;8.88;;
12597;SDS011;6364;53.590;9.956;2023-12-14T07:56:06;19.00;;;8.85;;
12597;SDS011;6364;53.590;9.956;2023-12-14T07:58:31;16.38;;;8.48;;
12597;SDS011;6364;53.590;9.956;2023-12-14T08:00:57;14.60;;;8.20;;
12597;SDS011;6364;53.590;9.956;2023-12-14T08:03:22;17.42;;;9.15;;
12597;SDS011;6364;53.590;9.956;2023-12-14T08:05:47;21.23;;;8.45;;
12597;SDS011;6364;53.590;9.956;2023-12-14T08:08:12;17.02;;;9.00;;
12597;SDS011;6364;53.590;9.956;2023-12-14T08:10:38;16.02;;;8.65;;
12597;SDS011;6364;53.590;9.956;2023-12-14T08:13:03;16.15;;;9.10;;
12597;SDS011;6364;53.590;9.956;2023-12-14T08:15:28;23.67;;;8.43;;
12597;SDS011;6364;53.590;9.956;2023-12-14T08:17:54;15.70;;;8.77;;
12597;SDS011;6364;53.590;9.956;2023-12-14T08:20:20;15.30;;;8.25;;
12597;SDS011;6364;53.590;9.956;2023-12-14T08:22:45;16.42;;;8.88;;
12597;SDS011;6364;53.590;9.956;2023-12-14T08:25:14;18.33;;;8.40;;
12597;SDS011;6364;53.590;9.956;2023-12-14T08:27:40;13.82;;;8.35;;
12597;SDS011;6364;53.590;9.956;2023-12-14T08:30:06;17.02;;;8.35;;
12597;SDS011;6364;53.590;9.956;2023-12-14T08:32:32;14.60;;;8.73;;
12597;SDS011;6364;53.590;9.956;2023-12-14T08:34:57;18.17;;;8.60;;
12597;SDS011;6364;53.590;9.956;2023-12-14T08:37:23;15.23;;;9.52;;
12597;SDS011;6364;53.590;9.956;2023-12-14T08:39:48;16.05;;;8.13;;
12597;SDS011;6364;53.590;9.956;2023-12-14T08:42:13;14.10;;;8.40;;
12597;SDS011;6364;53.590;9.956;2023-12-14T08:44:39;16.10;;;8.10;;
12597;SDS011;6364;53.590;9.956;2023-12-14T08:50:27;14.75;;;8.02;;
12597;SDS011;6364;53.590;9.956;2023-12-14T08:52:52;15.30;;;8.57;;
12597;SDS011;6364;53.590;9.956;2023-12-14T08:55:18;13.95;;;7.68;;
12597;SDS011;6364;53.590;9.956;2023-12-14T08:57:44;15.75;;;8.10;;
12597;SDS011;6364;53.590;9.956;2023-12-14T09:00:09;14.93;;;7.85;;
12597;SDS011;6364;53.590;9.956;2023-12-14T09:02:35;15.00;;;7.47;;
12597;SDS011;6364;53.590;9.956;2023-12-14T09:05:01;16.02;;;7.32;;
12597;SDS011;6364;53.590;9.956;2023-12-14T09:07:27;13.18;;;7.05;;
12597;SDS011;6364;53.590;9.956;2023-12-14T09:09:52;12.02;;;6.95;;
12597;SDS011;6364;53.590;9.956;2023-12-14T09:12:18;11.60;;;7.05;;
12597;SDS011;6364;53.590;9.956;2023-12-14T09:14:43;13.90;;;7.03;;
12597;SDS011;6364;53.590;9.956;2023-12-14T09:17:08;14.95;;;7.05;;
12597;SDS011;6364;53.590;9.956;2023-12-14T09:19:34;13.98;;;7.25;;
12597;SDS011;6364;53.590;9.956;2023-12-14T09:21:59;13.00;;;6.80;;
12597;SDS011;6364;53.590;9.956;2023-12-14T09:24:25;20.05;;;7.28;;
12597;SDS011;6364;53.590;9.956;2023-12-14T09:26:50;11.90;;;7.13;;
12597;SDS011;6364;53.590;9.956;2023-12-14T09:29:16;15.55;;;8.13;;
12597;SDS011;6364;53.590;9.956;2023-12-14T09:31:45;11.13;;;7.55;;
12597;SDS011;6364;53.590;9.956;2023-12-14T09:34:11;11.80;;;7.97;;
12597;SDS011;6364;53.590;9.956;2023-12-14T09:36:36;14.40;;;7.30;;
12597;SDS011;6364;53.590;9.956;2023-12-14T09:39:02;15.75;;;7.90;;
12597;SDS011;6364;53.590;9.956;2023-12-14T09:41:28;17.80;;;7.85;;
12597;SDS011;6364;53.590;9.956;2023-12-14T09:43:53;13.77;;;7.55;;
12597;SDS011;6364;53.590;9.956;2023-12-14T09:46:20;14.50;;;7.45;;
12597;SDS011;6364;53.590;9.956;2023-12-14T09:48:46;14.13;;;7.70;;
12597;SDS011;6364;53.590;9.956;2023-12-14T09:51:12;14.07;;;7.47;;
12597;SDS011;6364;53.590;9.956;2023-12-14T09:53:38;13.55;;;7.82;;
12597;SDS011;6364;53.590;9.956;2023-12-14T09:56:03;16.38;;;7.82;;
12597;SDS011;6364;53.590;9.956;2023-12-14T09:58:32;11.68;;;7.38;;
12597;SDS011;6364;53.590;9.956;2023-12-14T10:01:00;15.27;;;7.53;;
12597;SDS011;6364;53.590;9.956;2023-12-14T10:03:29;18.17;;;7.70;;
12597;SDS011;6364;53.590;9.956;2023-12-14T10:05:55;14.35;;;7.93;;
12597;SDS011;6364;53.590;9.956;2023-12-14T10:08:21;14.13;;;7.60;;
12597;SDS011;6364;53.590;9.956;2023-12-14T10:10:48;13.40;;;8.30;;
12597;SDS011;6364;53.590;9.956;2023-12-14T10:13:16;12.50;;;7.03;;
12597;SDS011;6364;53.590;9.956;2023-12-14T10:15:45;13.60;;;7.32;;
12597;SDS011;6364;53.590;9.956;2023-12-14T10:18:12;11.75;;;7.50;;
12597;SDS011;6364;53.590;9.956;2023-12-14T10:20:42;17.00;;;7.55;;
12597;SDS011;6364;53.590;9.956;2023-12-14T10:23:10;11.63;;;7.00;;
12597;SDS011;6364;53.590;9.956;2023-12-14T10:25:35;17.52;;;7.55;;
12597;SDS011;6364;53.590;9.956;2023-12-14T10:28:01;12.63;;;7.00;;
12597;SDS011;6364;53.590;9.956;2023-12-14T10:30:28;11.05;;;6.75;;
12597;SDS011;6364;53.590;9.956;2023-12-14T10:32:53;11.23;;;6.40;;
12597;SDS011;6364;53.590;9.956;2023-12-14T10:35:19;12.18;;;6.90;;
12597;SDS011;6364;53.590;9.956;2023-12-14T10:37:47;9.63;;;6.22;;
12597;SDS011;6364;53.590;9.956;2023-12-14T10:40:15;13.40;;;6.97;;
12597;SDS011;6364;53.590;9.956;2023-12-14T10:42:44;15.35;;;7.07;;
12597;SDS011;6364;53.590;9.956;2023-12-14T10:45:11;13.35;;;6.93;;
12597;SDS011;6364;53.590;9.956;2023-12-14T10:47:39;9.98;;;6.60;;
12597;SDS011;6364;53.590;9.956;2023-12-14T10:50:04;11.52;;;7.20;;
12597;SDS011;6364;53.590;9.956;2023-12-14T10:52:30;12.75;;;6.78;;
12597;SDS011;6364;53.590;9.956;2023-12-14T10:55:00;12.63;;;6.38;;
12597;SDS011;6364;53.590;9.956;2023-12-14T10:57:29;12.77;;;6.72;;
12597;SDS011;6364;53.590;9.956;2023-12-14T11:00:02;10.73;;;6.13;;
12597;SDS011;6364;53.590;9.956;2023-12-14T11:02:29;13.90;;;6.20;;
12597;SDS011;6364;53.590;9.956;2023-12-14T11:04:56;11.98;;;5.85;;
12597;SDS011;6364;53.590;9.956;2023-12-14T11:10:14;9.77;;;6.13;;
12597;SDS011;6364;53.590;9.956;2023-12-14T11:15:25;11.05;;;6.22;;
12597;SDS011;6364;53.590;9.956;2023-12-14T11:23:14;12.30;;;6.75;;
12597;SDS011;6364;53.590;9.956;2023-12-14T11:25:42;12.15;;;6.90;;
12597;SDS011;6364;53.590;9.956;2023-12-14T11:28:08;12.77;;;6.82;;
12597;SDS011;6364;53.590;9.956;2023-12-14T11:30:33;12.60;;;6.65;;
12597;SDS011;6364;53.590;9.956;2023-12-14T11:33:00;12.98;;;7.20;;
12597;SDS011;6364;53.590;9.956;2023-12-14T11:35:25;10.07;;;6.90;;
12597;SDS011;6364;53.590;9.956;2023-12-14T11:37:51;14.80;;;7.03;;
12597;SDS011;6364;53.590;9.956;2023-12-14T11:40:16;13.23;;;7.20;;
12597;SDS011;6364;53.590;9.956;2023-12-14T11:42:57;11.45;;;7.28;;
12597;SDS011;6364;53.590;9.956;2023-12-14T11:45:24;12.30;;;7.10;;
12597;SDS011;6364;53.590;9.956;2023-12-14T11:47:50;13.13;;;7.15;;
12597;SDS011;6364;53.590;9.956;2023-12-14T11:50:16;10.88;;;6.93;;
12597;SDS011;6364;53.590;9.956;2023-12-14T11:52:41;17.92;;;7.40;;
12597;SDS011;6364;53.590;9.956;2023-12-14T11:55:09;10.35;;;6.95;;
12597;SDS011;6364;53.590;9.956;2023-12-14T11:57:35;12.88;;;7.35;;
12597;SDS011;6364;53.590;9.956;2023-12-14T12:00:00;10.82;;;7.10;;
12597;SDS011;6364;53.590;9.956;2023-12-14T12:02:26;14.35;;;7.68;;
12597;SDS011;6364;53.590;9.956;2023-12-14T12:04:51;10.55;;;7.03;;
12597;SDS011;6364;53.590;9.956;2023-12-14T12:07:17;12.95;;;6.93;;
12597;SDS011;6364;53.590;9.956;2023-12-14T12:09:43;12.27;;;6.65;;
12597;SDS011;6364;53.590;9.956;2023-12-14T12:12:09;16.38;;;7.28;;
12597;SDS011;6364;53.590;9.956;2023-12-14T12:14:36;16.95;;;7.28;;
12597;SDS011;6364;53.590;9.956;2023-12-14T12:17:03;9.70;;;7.22;;
12597;SDS011;6364;53.590;9.956;2023-12-14T12:19:32;11.35;;;7.18;;
12597;SDS011;6364;53.590;9.956;2023-12-14T12:21:59;11.00;;;7.22;;
12597;SDS011;6364;53.590;9.956;2023-12-14T12:24:25;13.43;;;7.65;;
12597;SDS011;6364;53.590;9.956;2023-12-14T12:26:50;13.13;;;7.13;;
12597;SDS011;6364;53.590;9.956;2023-12-14T12:29:16;13.13;;;7.18;;
12597;SDS011;6364;53.590;9.956;2023-12-14T12:31:42;11.70;;;7.50;;
12597;SDS011;6364;53.590;9.956;2023-12-14T12:34:08;13.32;;;7.18;;
12597;SDS011;6364;53.590;9.956;2023-12-14T12:36:34;12.50;;;7.38;;
12597;SDS011;6364;53.590;9.956;2023-12-14T12:38:59;17.30;;;7.50;;
12597;SDS011;6364;53.590;9.956;2023-12-14T12:41:24;13.90;;;7.22;;
12597;SDS011;6364;53.590;9.956;2023-12-14T12:43:50;11.90;;;6.90;;
12597;SDS011;6364;53.590;9.956;2023-12-14T12:46:15;14.32;;;7.57;;
12597;SDS011;6364;53.590;9.956;2023-12-14T12:48:40;10.43;;;7.13;;
12597;SDS011;6364;53.590;9.956;2023-12-14T12:51:06;13.38;;;7.43;;
12597;SDS011;6364;53.590;9.956;2023-12-14T12:53:31;13.55;;;7.47;;
12597;SDS011;6364;53.590;9.956;2023-12-14T12:55:58;17.38;;;7.93;;
12597;SDS011;6364;53.590;9.956;2023-12-14T12:58:23;15.57;;;8.02;;
12597;SDS011;6364;53.590;9.956;2023-12-14T13:00:49;13.35;;;7.32;;
12597;SDS011;6364;53.590;9.956;2023-12-14T13:03:14;16.70;;;7.78;;
12597;SDS011;6364;53.590;9.956;2023-12-14T13:05:40;13.32;;;7.38;;
12597;SDS011;6364;53.590;9.956;2023-12-14T13:08:05;13.30;;;7.65;;
12597;SDS011;6364;53.590;9.956;2023-12-14T13:10:31;19.10;;;7.95;;
12597;SDS011;6364;53.590;9.956;2023-12-14T13:12:57;15.02;;;8.05;;
12597;SDS011;6364;53.590;9.956;2023-12-14T13:15:22;15.52;;;7.78;;
12597;SDS011;6364;53.590;9.956;2023-12-14T13:17:52;18.77;;;7.82;;
12597;SDS011;6364;53.590;9.956;2023-12-14T13:20:18;21.25;;;7.90;;
12597;SDS011;6364;53.590;9.956;2023-12-14T13:22:44;15.07;;;7.53;;
12597;SDS011;6364;53.590;9.956;2023-12-14T13:25:10;15.38;;;7.93;;
12597;SDS011;6364;53.590;9.956;2023-12-14T13:27:35;12.95;;;7.68;;
12597;SDS011;6364;53.590;9.956;2023-12-14T13:30:02;13.00;;;8.38;;
12597;SDS011;6364;53.590;9.956;2023-12-14T13:32:29;14.93;;;8.00;;
12597;SDS011;6364;53.590;9.956;2023-12-14T13:34:54;13.00;;;7.80;;
12597;SDS011;6364;53.590;9.956;2023-12-14T13:37:20;13.52;;;7.88;;
12597;SDS011;6364;53.590;9.956;2023-12-14T13:39:45;14.18;;;7.80;;
12597;SDS011;6364;53.590;9.956;2023-12-14T13:42:12;15.50;;;7.82;;
12597;SDS011;6364;53.590;9.956;2023-12-14T13:44:40;14.85;;;7.40;;
12597;SDS011;6364;53.590;9.956;2023-12-14T13:47:06;19.60;;;8.13;;
12597;SDS011;6364;53.590;9.956;2023-12-14T13:49:31;14.05;;;8.10;;
12597;SDS011;6364;53.590;9.956;2023-12-14T13:51:57;16.88;;;8.18;;
12597;SDS011;6364;53.590;9.956;2023-12-14T13:54:22;15.32;;;7.85;;
12597;SDS011;6364;53.590;9.956;2023-12-14T13:56:48;14.70;;;8.68;;
12597;SDS011;6364;53.590;9.956;2023-12-14T13:59:13;17.80;;;6.93;;
12597;SDS011;6364;53.590;9.956;2023-12-14T14:01:38;13.15;;;7.90;;
12597;SDS011;6364;53.590;9.956;2023-12-14T14:04:04;16.52;;;7.82;;
12597;SDS011;6364;53.590;9.956;2023-12-14T14:06:29;12.35;;;7.72;;
12597;SDS011;6364;53.590;9.956;2023-12-14T14:08:55;12.07;;;7.20;;
12597;SDS011;6364;53.590;9.956;2023-12-14T14:11:20;14.27;;;7.40;;
12597;SDS011;6364;53.590;9.956;2023-12-14T14:13:47;14.35;;;7.47;;
12597;SDS011;6364;53.590;9.956;2023-12-14T14:16:15;12.13;;;7.10;;
12597;SDS011;6364;53.590;9.956;2023-12-14T14:18:45;13.98;;;7.78;;
12597;SDS011;6364;53.590;9.956;2023-12-14T14:21:11;17.70;;;8.07;;
12597;SDS011;6364;53.590;9.956;2023-12-14T14:23:42;10.52;;;7.45;;
12597;SDS011;6364;53.590;9.956;2023-12-14T14:26:10;13.82;;;8.05;;
12597;SDS011;6364;53.590;9.956;2023-12-14T14:28:49;17.45;;;8.23;;
12597;SDS011;6364;53.590;9.956;2023-12-14T14:31:23;11.63;;;6.65;;
12597;SDS011;6364;53.590;9.956;2023-12-14T14:33:55;16.15;;;7.82;;
12597;SDS011;6364;53.590;9.956;2023-12-14T14:36:20;11.60;;;7.50;;
12597;SDS011;6364;53.590;9.956;2023-12-14T14:38:46;17.38;;;8.68;;
12597;SDS011;6364;53.590;9.956;2023-12-14T14:41:12;14.02;;;8.07;;
12597;SDS011;6364;53.590;9.956;2023-12-14T14:43:37;14.98;;;7.88;;
12597;SDS011;6364;53.590;9.956;2023-12-14T14:46:06;14.77;;;8.00;;
12597;SDS011;6364;53.590;9.956;2023-12-14T14:48:31;12.57;;;7.15;;
12597;SDS011;6364;53.590;9.956;2023-12-14T14:50:57;13.43;;;7.63;;
12597;SDS011;6364;53.590;9.956;2023-12-14T14:53:22;16.98;;;7.43;;
12597;SDS011;6364;53.590;9.956;2023-12-14T14:55:48;13.25;;;7.78;;
12597;SDS011;6364;53.590;9.956;2023-12-14T14:58:18;17.08;;;7.57;;